Seacod — DDPW — position and weather

sailwx.info

Track history (hours):
 
Tides and Currents Weather Stations Pressure Air Temp Water Temp Dewpoint Dewpoint Depression Visibility Wind Speed Wind Dir Waves Ship Positions

Seacod

Last reported at 2018-Apr-25 21:58 UTC. Time now 2018-Apr-25 22:17 UTC.
Position N 48°23' W 004°27'.

Length 188 m; draft 10.2 m.

Type: Tanker. MMSI: 218019000.

Date/timePositionNaut miles runAvg speedWind from/ knotsBaromVisibWave heightAir tempDewpointWater temp
2018-Apr-25 21:58N 48°23' W 004°27'0 0.0
2018-Apr-25 21:28N 48°23' W 004°27'0 0.0
2018-Apr-25 20:58N 48°23' W 004°27'0 0.0
2018-Apr-25 20:28N 48°23' W 004°27'0 0.0
2018-Apr-25 19:58N 48°23' W 004°27'0 0.0
2018-Apr-25 19:28N 48°23' W 004°27'0 0.0
2018-Apr-25 18:58N 48°23' W 004°27'0 0.0
2018-Apr-25 18:28N 48°23' W 004°27'0 0.0
2018-Apr-25 17:58N 48°23' W 004°27'0 0.0
2018-Apr-25 17:27N 48°23' W 004°27'0 0.0
2018-Apr-25 17:00N 48°23' W 004°27'0 0.0
2018-Apr-25 16:30N 48°23' W 004°27'0 0.0
2018-Apr-25 16:00N 48°23' W 004°27'0 0.0
2018-Apr-25 15:30N 48°23' W 004°27'0 0.0
2018-Apr-25 14:59N 48°23' W 004°27'0 0.0
2018-Apr-25 14:28N 48°23' W 004°27'0 0.0
2018-Apr-25 14:00N 48°23' W 004°27'0 0.0
2018-Apr-25 13:30N 48°23' W 004°27'0 0.0
2018-Apr-25 12:59N 48°23' W 004°27'0 0.0
2018-Apr-25 12:28N 48°23' W 004°27'0 0.0
2018-Apr-25 12:00N 48°23' W 004°27'0 0.0
2018-Apr-25 11:29N 48°23' W 004°27'0 0.0
2018-Apr-25 11:00N 48°23' W 004°27'0 0.1
2018-Apr-25 10:30N 48°23' W 004°27'1 1.4
2018-Apr-25 10:00N 48°22' W 004°28'4 7.2
2018-Apr-25 09:30N 48°21' W 004°33'611.8
2018-Apr-25 09:00N 48°18' W 004°41'3 5.6
2018-Apr-25 08:28N 48°19' W 004°45'0 0.2
2018-Apr-25 07:58N 48°19' W 004°45'0 0.0
2018-Apr-25 07:28N 48°19' W 004°45'0 0.0
2018-Apr-25 06:58N 48°19' W 004°45'0 0.0
2018-Apr-25 06:28N 48°19' W 004°45'0 0.0
2018-Apr-25 05:58N 48°19' W 004°45'0 0.0
2018-Apr-25 05:28N 48°19' W 004°45'0 0.0
2018-Apr-25 04:58N 48°19' W 004°45'0 0.0
2018-Apr-25 04:28N 48°19' W 004°45'0 0.0
2018-Apr-25 03:58N 48°19' W 004°45'0 0.0
2018-Apr-25 03:30N 48°19' W 004°45'0 0.0
2018-Apr-25 03:00N 48°19' W 004°45'0 0.0
2018-Apr-25 02:30N 48°19' W 004°45'0 0.0
2018-Apr-25 01:58N 48°19' W 004°45'0 0.0
2018-Apr-25 01:28N 48°19' W 004°45'0 0.0
2018-Apr-25 00:58N 48°19' W 004°45'0 0.0
2018-Apr-25 00:28N 48°19' W 004°45'0 0.1
2018-Apr-24 23:58N 48°19' W 004°45'0 0.0
2018-Apr-24 23:27N 48°19' W 004°45'0 0.0
2018-Apr-24 22:59N 48°19' W 004°45'0 0.0
2018-Apr-24 22:29N 48°19' W 004°45'0 0.0
2018-Apr-24 21:59N 48°19' W 004°45'0 0.0
2018-Apr-24 21:28N 48°19' W 004°45'0 0.0
2018-Apr-24 20:58N 48°19' W 004°45'0 0.0
2018-Apr-24 20:28N 48°19' W 004°45'0 0.0
2018-Apr-24 19:55N 48°19' W 004°45'0 0.1
2018-Apr-24 19:30N 48°19' W 004°45'1 1.7
2018-Apr-24 19:00N 48°18' W 004°46'510.2
2018-Apr-24 18:30N 48°16' W 004°53'713.6
2018-Apr-24 18:00N 48°17' W 005°03'91 7.8
2018-Apr-24 06:15N 49°36' W 003°56'312.0
2018-Apr-24 06:00N 49°38' W 003°52'711.8
2018-Apr-24 05:25N 49°42' W 003°43'611.7
2018-Apr-24 04:54N 49°45' W 003°35'611.4
2018-Apr-24 04:23N 49°48' W 003°27'411.1
2018-Apr-24 04:00N 49°50' W 003°21'610.8
2018-Apr-24 03:25N 49°53' W 003°13'610.4
2018-Apr-24 02:53N 49°56' W 003°05'410.2
2018-Apr-24 02:30N 49°58' W 003°00'7 9.7
2018-Apr-24 01:48N 50°01' W 002°51'3 9.7
2018-Apr-24 01:28N 50°02' W 002°46'5 9.7
2018-Apr-24 00:54N 50°03' W 002°38'2110.3
2018-Apr-23 22:50N 50°09' W 002°05'411.4
2018-Apr-23 22:30N 50°10' W 001°60'612.0
2018-Apr-23 22:00N 50°12' W 001°51'612.7
2018-Apr-23 21:31N 50°14' W 001°41'612.8
2018-Apr-23 21:00N 50°15' W 001°32'713.1
2018-Apr-23 20:30N 50°17' W 001°22'1613.5
2018-Apr-23 19:20N 50°21' W 000°58'613.9
2018-Apr-23 18:56N 50°23' W 000°50'814.4
2018-Apr-23 18:24N 50°25' W 000°38'614.0
2018-Apr-23 17:59N 50°27' W 000°29'613.7
2018-Apr-23 17:30N 50°29' W 000°19'713.3
2018-Apr-23 17:00N 50°31' W 000°09'612.8
2018-Apr-23 16:30N 50°32' E 000°00'612.5
2018-Apr-23 16:00N 50°34' E 000°10'612.2
2018-Apr-23 15:30N 50°36' E 000°19'611.9
2018-Apr-23 15:00N 50°37' E 000°28'612.1
2018-Apr-23 14:30N 50°40' E 000°37'612.5
2018-Apr-23 14:00N 50°43' E 000°45'612.8
2018-Apr-23 13:30N 50°47' E 000°53'813.5
2018-Apr-23 12:56N 50°52' E 001°03'1114.2
2018-Apr-23 12:10N 50°58' E 001°16'214.8
2018-Apr-23 12:00N 50°60' E 001°19'714.9
2018-Apr-23 11:31N 51°05' E 001°28'714.6
2018-Apr-23 11:01N 51°09' E 001°38'713.9
2018-Apr-23 10:30N 51°14' E 001°46'713.6
2018-Apr-23 10:00N 51°20' E 001°51'713.1
2018-Apr-23 09:31N 51°25' E 001°57'612.8
2018-Apr-23 09:00N 51°30' E 002°03'612.4
2018-Apr-23 08:29N 51°35' E 002°10'612.1
2018-Apr-23 08:00N 51°40' E 002°16'611.9
2018-Apr-23 07:28N 51°45' E 002°23'5612.9
2018-Apr-23 03:08N 52°26' E 003°24'514.0
2018-Apr-23 02:47N 52°28' E 003°31'513.4
2018-Apr-23 02:23N 52°29' E 003°40'913.7
2018-Apr-23 01:42N 52°31' E 003°55'313.5
2018-Apr-23 01:30N 52°31' E 003°59'713.2
2018-Apr-23 01:00N 52°31' E 004°10'612.7
2018-Apr-23 00:30N 52°30' E 004°20'510.9
2018-Apr-23 00:01N 52°28' E 004°29'4 8.9
2018-Apr-22 23:30N 52°28' E 004°36'0 0.4
2018-Apr-22 23:01N 52°28' E 004°36'1 1.1
2018-Apr-22 22:31N 52°28' E 004°37'1 1.7
2018-Apr-22 22:00N 52°28' E 004°39'1 2.8
2018-Apr-22 21:30N 52°27' E 004°41'2 3.2
2018-Apr-22 21:00N 52°26' E 004°43'2 4.7
2018-Apr-22 20:30N 52°25' E 004°46'1 2.0
2018-Apr-22 19:58N 52°24' E 004°46'0 0.0
2018-Apr-22 18:58N 52°24' E 004°46'0 0.0
2018-Apr-22 18:22N 52°24' E 004°46'0 0.0
2018-Apr-22 17:40N 52°24' E 004°46'0 0.0
2018-Apr-22 17:25N 52°24' E 004°46'0 0.0
2018-Apr-22 16:55N 52°24' E 004°46'0 0.0
2018-Apr-22 16:25N 52°24' E 004°46'0 0.0
2018-Apr-22 15:49N 52°24' E 004°46'0 0.0
2018-Apr-22 15:28N 52°24' E 004°46'0 0.0
2018-Apr-22 14:58N 52°24' E 004°46'0 0.0
2018-Apr-22 14:19N 52°24' E 004°46'0 0.0
2018-Apr-22 13:58N 52°24' E 004°46'0 0.0
2018-Apr-22 13:22N 52°24' E 004°46'0 0.0
2018-Apr-22 12:58N 52°24' E 004°46'0 0.0
2018-Apr-22 12:28N 52°24' E 004°46'0 0.0
2018-Apr-22 11:58N 52°24' E 004°46'0 0.0
2018-Apr-22 11:28N 52°24' E 004°46'0 0.0
2018-Apr-22 10:58N 52°24' E 004°46'0 0.0
2018-Apr-22 10:22N 52°24' E 004°46'0 0.0
2018-Apr-22 09:55N 52°24' E 004°46'0 0.0
2018-Apr-22 09:19N 52°24' E 004°46'0 0.0
2018-Apr-22 08:55N 52°24' E 004°46'0 0.0
2018-Apr-22 08:25N 52°24' E 004°46'0 0.0
2018-Apr-22 07:46N 52°24' E 004°46'0 0.0
2018-Apr-22 07:28N 52°24' E 004°46'0 0.0
2018-Apr-22 06:58N 52°24' E 004°46'0 0.0
2018-Apr-22 06:28N 52°24' E 004°46'0 0.0
2018-Apr-22 05:58N 52°24' E 004°46'0 0.0
2018-Apr-22 05:28N 52°24' E 004°46'0 0.0
2018-Apr-22 04:55N 52°24' E 004°46'0 0.0
2018-Apr-22 04:19N 52°24' E 004°46'0 0.0
2018-Apr-22 03:58N 52°24' E 004°46'0 0.0
2018-Apr-22 03:13N 52°24' E 004°46'0 0.0
2018-Apr-22 02:43N 52°24' E 004°46'0 0.0
2018-Apr-22 02:22N 52°24' E 004°46'0 0.0
2018-Apr-22 01:58N 52°24' E 004°46'0 0.0
2018-Apr-22 01:25N 52°24' E 004°46'0 0.0
2018-Apr-22 00:40N 52°24' E 004°46'0 0.0
2018-Apr-22 00:22N 52°24' E 004°46'0 0.0
2018-Apr-21 23:07N 52°24' E 004°46'0 0.0
2018-Apr-21 22:49N 52°24' E 004°46'0 0.0
2018-Apr-21 22:22N 52°24' E 004°46'0 0.0
2018-Apr-21 21:52N 52°24' E 004°46'0 0.0
2018-Apr-21 20:52N 52°24' E 004°46'0 0.0
2018-Apr-21 20:28N 52°24' E 004°46'0 0.0
2018-Apr-21 19:46N 52°24' E 004°46'0 0.0
2018-Apr-21 19:22N 52°24' E 004°46'0 0.0
2018-Apr-21 18:55N 52°24' E 004°46'0 0.0
2018-Apr-21 18:28N 52°24' E 004°46'0 0.0
2018-Apr-21 17:58N 52°24' E 004°46'0 0.0
2018-Apr-21 17:01N 52°24' E 004°46'0 0.0
2018-Apr-21 16:49N 52°24' E 004°46'0 0.0
2018-Apr-21 16:19N 52°24' E 004°46'0 0.0
2018-Apr-21 15:34N 52°24' E 004°46'0 0.0
2018-Apr-21 15:25N 52°24' E 004°46'0 0.0
2018-Apr-21 14:58N 52°24' E 004°46'0 0.0
2018-Apr-21 14:22N 52°24' E 004°46'0 0.0
2018-Apr-21 13:28N 52°24' E 004°46'0 0.0
2018-Apr-21 12:55N 52°24' E 004°46'0 0.0
2018-Apr-21 12:22N 52°24' E 004°46'0 0.0
2018-Apr-21 11:58N 52°24' E 004°46'0 0.0
2018-Apr-21 11:10N 52°24' E 004°46'0 0.0
2018-Apr-21 10:49N 52°24' E 004°46'0 0.0
2018-Apr-21 10:22N 52°24' E 004°46'0 0.0
2018-Apr-21 09:52N 52°24' E 004°46'0 0.0
2018-Apr-21 09:28N 52°24' E 004°46'0 0.0
2018-Apr-21 08:58N 52°24' E 004°46'0 0.0
2018-Apr-21 08:13N 52°24' E 004°46'0 0.0
2018-Apr-21 07:58N 52°24' E 004°46'0 0.0
2018-Apr-21 07:16N 52°24' E 004°46'0 0.0
2018-Apr-21 06:58N 52°24' E 004°46'0 0.0
2018-Apr-21 05:22N 52°24' E 004°46'0 0.0
2018-Apr-21 04:46N 52°24' E 004°46'0 0.0
2018-Apr-21 04:28N 52°24' E 004°46'0 0.0
2018-Apr-21 03:58N 52°24' E 004°46'0 0.0
2018-Apr-21 03:28N 52°24' E 004°46'0 0.0
2018-Apr-21 02:07N 52°24' E 004°46'0 0.0
2018-Apr-21 00:40N 52°24' E 004°46'0 0.0
2018-Apr-21 00:22N 52°24' E 004°46'0 0.0
2018-Apr-20 23:58N 52°24' E 004°46'0 0.0
2018-Apr-20 23:22N 52°24' E 004°46'0 0.0
2018-Apr-20 22:55N 52°24' E 004°46'0 0.0
2018-Apr-20 22:28N 52°24' E 004°46'0 0.0
2018-Apr-20 21:34N 52°24' E 004°46'0 0.0
2018-Apr-20 21:10N 52°24' E 004°46'0 0.0
2018-Apr-20 20:43N 52°24' E 004°46'0 0.0
2018-Apr-20 20:07N 52°24' E 004°46'0 0.0
2018-Apr-20 19:58N 52°24' E 004°46'0 0.0
2018-Apr-20 19:10N 52°24' E 004°46'0 0.0
2018-Apr-20 18:16N 52°24' E 004°46'0 0.0
2018-Apr-20 17:55N 52°24' E 004°46'0 0.0
2018-Apr-20 16:55N 52°24' E 004°46'0 0.0
2018-Apr-20 16:19N 52°24' E 004°46'0 0.0
2018-Apr-20 15:52N 52°24' E 004°46'0 0.0
2018-Apr-20 15:25N 52°24' E 004°46'0 0.0
2018-Apr-20 14:58N 52°24' E 004°46'0 0.0
2018-Apr-20 14:25N 52°24' E 004°46'0 0.0
2018-Apr-20 13:43N 52°24' E 004°46'0 0.0
2018-Apr-20 13:28N 52°24' E 004°46'0 0.0
2018-Apr-20 12:43N 52°24' E 004°46'0 0.0
2018-Apr-20 12:22N 52°24' E 004°46'0 0.0
2018-Apr-20 11:52N 52°24' E 004°46'0 0.0
2018-Apr-20 11:22N 52°24' E 004°46'0 0.0
2018-Apr-20 10:55N 52°24' E 004°46'0 0.0
2018-Apr-20 10:16N 52°24' E 004°46'0 0.0
2018-Apr-20 09:46N 52°24' E 004°46'0 0.0
2018-Apr-20 09:25N 52°24' E 004°46'0 0.0
2018-Apr-20 08:58N 52°24' E 004°46'0 0.0
2018-Apr-20 08:28N 52°24' E 004°46'0 0.0
2018-Apr-20 07:55N 52°24' E 004°46'0 0.0
2018-Apr-20 07:28N 52°24' E 004°46'0 0.0
2018-Apr-20 06:55N 52°24' E 004°46'0 0.0
2018-Apr-20 06:28N 52°24' E 004°46'0 0.0
2018-Apr-20 05:55N 52°24' E 004°46'0 0.0
2018-Apr-20 05:19N 52°24' E 004°46'0 0.0
2018-Apr-20 04:52N 52°24' E 004°46'0 0.0
2018-Apr-20 04:22N 52°24' E 004°46'0 0.0
2018-Apr-20 03:55N 52°24' E 004°46'0 0.0
2018-Apr-20 03:28N 52°24' E 004°46'0 0.0
2018-Apr-20 02:58N 52°24' E 004°46'0 0.0
2018-Apr-20 02:28N 52°24' E 004°46'0 0.0
2018-Apr-20 01:55N 52°24' E 004°46'0 0.0
2018-Apr-20 01:28N 52°24' E 004°46'0 0.0
2018-Apr-20 00:58N 52°24' E 004°46'0 0.0
2018-Apr-20 00:31N 52°24' E 004°46'1 2.5
2018-Apr-20 00:00N 52°25' E 004°46'4 7.4
2018-Apr-19 23:30N 52°27' E 004°41'3 5.6
2018-Apr-19 23:01N 52°28' E 004°37'0 0.5
2018-Apr-19 22:31N 52°28' E 004°36'2 3.6
2018-Apr-19 22:01N 52°28' E 004°33'611.5
2018-Apr-19 21:30N 52°29' E 004°24'4 9.0
2018-Apr-19 21:00N 52°29' E 004°17'5 9.7
2018-Apr-19 20:30N 52°29' E 004°09'5 9.7
2018-Apr-19 20:00N 52°27' E 004°01'1 1.1
2018-Apr-19 19:08N 52°27' E 003°60'0 0.0
2018-Apr-19 18:45N 52°27' E 003°60'0 0.0
2018-Apr-19 18:28N 52°27' E 003°60'0 0.0
2018-Apr-19 17:58N 52°27' E 003°60'0 0.0
2018-Apr-19 17:27N 52°27' E 003°60'0 0.0
2018-Apr-19 16:56N 52°27' E 003°60'0 0.1
2018-Apr-19 16:28N 52°27' E 003°60'0 0.0
2018-Apr-19 15:55N 52°27' E 003°60'0 0.0
2018-Apr-19 15:19N 52°27' E 003°60'0 0.1
2018-Apr-19 14:58N 52°27' E 003°60'0 0.0
2018-Apr-19 14:28N 52°27' E 003°60'0 0.0
2018-Apr-19 13:55N 52°27' E 003°60'0 0.0
2018-Apr-19 13:28N 52°27' E 003°60'0 0.0
2018-Apr-19 12:55N 52°27' E 003°60'0 0.0
2018-Apr-19 12:22N 52°27' E 003°60'0 0.0
2018-Apr-19 11:55N 52°27' E 003°60'0 0.0
2018-Apr-19 11:29N 52°27' E 003°60'0 0.0
2018-Apr-19 11:00N 52°27' E 003°60'0 0.0
2018-Apr-19 10:29N 52°27' E 003°60'0 0.0
2018-Apr-19 09:49N 52°27' E 003°60'0 0.1
2018-Apr-19 09:30N 52°27' E 003°60'0 0.0
2018-Apr-19 08:45N 52°27' E 003°60'0 0.0
2018-Apr-19 08:30N 52°27' E 003°60'0 0.0
2018-Apr-19 08:00N 52°27' E 003°60'0 0.0
2018-Apr-19 07:30N 52°27' E 003°60'0 0.0
2018-Apr-19 06:51N 52°27' E 003°60'0 0.0
2018-Apr-19 06:28N 52°27' E 003°60'0 0.0
2018-Apr-19 06:00N 52°27' E 003°60'0 0.0
2018-Apr-19 05:28N 52°27' E 003°60'0 0.0
2018-Apr-19 04:45N 52°27' E 003°60'0 0.0
2018-Apr-19 04:21N 52°27' E 003°60'0 0.0
2018-Apr-19 04:00N 52°27' E 003°60'0 0.0
2018-Apr-19 03:30N 52°27' E 003°60'0 0.1
2018-Apr-19 02:48N 52°27' E 003°60'0 0.0
2018-Apr-19 02:27N 52°27' E 003°60'0 0.0
2018-Apr-19 01:54N 52°27' E 003°60'0 0.0
2018-Apr-19 01:30N 52°27' E 003°60'0 0.0
2018-Apr-19 00:59N 52°27' E 003°60'0 0.0
2018-Apr-19 00:29N 52°27' E 003°60'0 0.0
2018-Apr-18 23:59N 52°27' E 003°60'0 0.0
2018-Apr-18 23:23N 52°27' E 003°60'0 0.0
2018-Apr-18 22:59N 52°27' E 003°60'0 0.0
2018-Apr-18 22:29N 52°27' E 003°60'0 0.0
2018-Apr-18 21:56N 52°27' E 003°60'0 0.0
2018-Apr-18 21:29N 52°27' E 003°60'0 0.0
2018-Apr-18 20:59N 52°27' E 003°60'0 0.0
2018-Apr-18 20:02N 52°27' E 003°60'0 0.0
2018-Apr-18 19:47N 52°27' E 003°60'0 0.1
2018-Apr-18 19:17N 52°27' E 003°60'0 0.1
2018-Apr-18 18:47N 52°27' E 003°60'0 0.0
2018-Apr-18 18:26N 52°27' E 003°60'0 0.0
2018-Apr-18 17:41N 52°27' E 003°60'0 0.0
2018-Apr-18 17:14N 52°27' E 003°60'0 0.0
2018-Apr-18 16:53N 52°27' E 003°60'0 0.0
2018-Apr-18 16:29N 52°27' E 003°60'0 0.0
2018-Apr-18 15:57N 52°27' E 003°60'0 0.0
2018-Apr-18 15:28N 52°27' E 003°60'0 0.2
2018-Apr-18 14:59N 52°27' E 003°60'510.0
2018-Apr-18 14:30N 52°26' E 003°52'713.0
2018-Apr-18 13:59N 52°25' E 003°41'611.7
2018-Apr-18 13:30N 52°20' E 003°36'1112.4
2018-Apr-18 12:35N 52°10' E 003°27'111.9
2018-Apr-18 12:29N 52°09' E 003°26'911.8
2018-Apr-18 11:43N 52°00' E 003°24'411.7
2018-Apr-18 11:25N 51°57' E 003°23'511.3
2018-Apr-18 11:00N 51°52' E 003°21'611.1
2018-Apr-18 10:29N 51°47' E 003°15'510.5
2018-Apr-18 10:00N 51°42' E 003°17'713.1
2018-Apr-18 09:29N 51°37' E 003°22'510.4
2018-Apr-18 09:00N 51°32' E 003°26'612.1
2018-Apr-18 08:30N 51°27' E 003°32'612.0
2018-Apr-18 08:00N 51°26' E 003°41'612.5
2018-Apr-18 07:31N 51°21' E 003°46'0 0.4
2018-Apr-18 07:01N 51°20' E 003°46'0 0.0
2018-Apr-18 06:22N 51°20' E 003°46'0 0.0
2018-Apr-18 05:48N 51°20' E 003°46'0 0.0
2018-Apr-18 05:24N 51°20' E 003°46'0 0.0
2018-Apr-18 04:51N 51°20' E 003°46'0 0.0
2018-Apr-18 04:25N 51°20' E 003°46'0 0.0
2018-Apr-18 03:52N 51°20' E 003°46'0 0.0
2018-Apr-18 03:22N 51°20' E 003°46'0 0.0
2018-Apr-18 03:01N 51°20' E 003°46'0 0.0
2018-Apr-18 02:18N 51°20' E 003°46'0 0.0
2018-Apr-18 00:51N 51°20' E 003°46'0 0.0
2018-Apr-17 23:24N 51°20' E 003°46'0 0.0
2018-Apr-17 22:57N 51°20' E 003°46'0 0.0
2018-Apr-17 21:58N 51°20' E 003°46'0 0.0
2018-Apr-17 21:28N 51°20' E 003°46'0 0.0
2018-Apr-17 20:39N 51°20' E 003°46'0 0.0
2018-Apr-17 20:09N 51°20' E 003°46'0 0.0
2018-Apr-17 19:58N 51°20' E 003°46'0 0.0
2018-Apr-17 18:45N 51°20' E 003°46'0 0.0
2018-Apr-17 18:15N 51°20' E 003°46'0 0.0
2018-Apr-17 17:58N 51°20' E 003°46'0 0.0
2018-Apr-17 17:24N 51°20' E 003°46'0 0.0
2018-Apr-17 16:58N 51°20' E 003°46'0 0.0
2018-Apr-17 16:31N 51°20' E 003°46'0 0.0
2018-Apr-17 16:00N 51°20' E 003°46'0 0.0
2018-Apr-17 15:28N 51°20' E 003°46'0 0.0
2018-Apr-17 14:57N 51°20' E 003°46'0 0.0
2018-Apr-17 14:12N 51°20' E 003°46'0 0.0
2018-Apr-17 13:57N 51°20' E 003°46'0 0.0
2018-Apr-17 13:28N 51°20' E 003°46'0 0.0
2018-Apr-17 12:18N 51°20' E 003°46'0 0.0
2018-Apr-17 11:51N 51°20' E 003°46'0 0.0
2018-Apr-17 09:16N 51°20' E 003°46'0 0.0
2018-Apr-17 08:43N 51°20' E 003°46'0 0.0
2018-Apr-17 08:27N 51°20' E 003°46'0 0.0
2018-Apr-17 07:57N 51°20' E 003°46'0 0.0
2018-Apr-17 07:28N 51°20' E 003°46'0 0.0
2018-Apr-17 06:49N 51°20' E 003°46'0 0.0
2018-Apr-17 06:28N 51°20' E 003°46'0 0.0
2018-Apr-17 05:58N 51°20' E 003°46'0 0.5
2018-Apr-17 05:30N 51°21' E 003°46'4 7.8
2018-Apr-17 05:00N 51°24' E 003°43'5 9.3
2018-Apr-17 04:30N 51°26' E 003°36'4 8.7
2018-Apr-17 04:00N 51°25' E 003°29'714.5
2018-Apr-17 03:30N 51°24' E 003°17'815.7
2018-Apr-17 03:00N 51°24' E 003°05'510.1
2018-Apr-17 02:30N 51°29' E 003°02'713.7
2018-Apr-17 02:00N 51°34' E 003°09'714.0
2018-Apr-17 01:29N 51°41' E 003°12'511.1
2018-Apr-17 01:00N 51°47' E 003°11'4 8.6
2018-Apr-17 00:29N 51°50' E 003°07'2612.0
2018-Apr-16 22:19N 52°16' E 003°01'713.2
2018-Apr-16 21:48N 52°22' E 003°03'22312.1
2018-Apr-16 03:22N 55°35' E 006°13'512.5
2018-Apr-16 03:00N 55°39' E 006°18'612.5
2018-Apr-16 02:30N 55°44' E 006°24'  
Track history (hours):
 
Tides and Currents Weather Stations Pressure Air Temp Water Temp Dewpoint Dewpoint Depression Visibility Wind Speed Wind Dir Waves Ship Positions

Seacod

Last reported at 2018-Apr-25 21:58 UTC. Time now 2018-Apr-25 22:17 UTC.
Position N 48°23' W 004°27'.

Length 188 m; draft 10.2 m.

Type: Tanker. MMSI: 218019000.

Date/timePositionNaut miles runAvg speedWind from/ knotsBaromVisibWave heightAir tempDewpointWater temp
2018-Apr-25 21:58N 48°23' W 004°27'0 0.0
2018-Apr-25 21:28N 48°23' W 004°27'0 0.0
2018-Apr-25 20:58N 48°23' W 004°27'0 0.0
2018-Apr-25 20:28N 48°23' W 004°27'0 0.0
2018-Apr-25 19:58N 48°23' W 004°27'0 0.0
2018-Apr-25 19:28N 48°23' W 004°27'0 0.0
2018-Apr-25 18:58N 48°23' W 004°27'0 0.0
2018-Apr-25 18:28N 48°23' W 004°27'0 0.0
2018-Apr-25 17:58N 48°23' W 004°27'0 0.0
2018-Apr-25 17:27N 48°23' W 004°27'0 0.0
2018-Apr-25 17:00N 48°23' W 004°27'0 0.0
2018-Apr-25 16:30N 48°23' W 004°27'0 0.0
2018-Apr-25 16:00N 48°23' W 004°27'0 0.0
2018-Apr-25 15:30N 48°23' W 004°27'0 0.0
2018-Apr-25 14:59N 48°23' W 004°27'0 0.0
2018-Apr-25 14:28N 48°23' W 004°27'0 0.0
2018-Apr-25 14:00N 48°23' W 004°27'0 0.0
2018-Apr-25 13:30N 48°23' W 004°27'0 0.0
2018-Apr-25 12:59N 48°23' W 004°27'0 0.0
2018-Apr-25 12:28N 48°23' W 004°27'0 0.0
2018-Apr-25 12:00N 48°23' W 004°27'0 0.0
2018-Apr-25 11:29N 48°23' W 004°27'0 0.0
2018-Apr-25 11:00N 48°23' W 004°27'0 0.1
2018-Apr-25 10:30N 48°23' W 004°27'1 1.4
2018-Apr-25 10:00N 48°22' W 004°28'4 7.2
2018-Apr-25 09:30N 48°21' W 004°33'611.8
2018-Apr-25 09:00N 48°18' W 004°41'3 5.6
2018-Apr-25 08:28N 48°19' W 004°45'0 0.2
2018-Apr-25 07:58N 48°19' W 004°45'0 0.0
2018-Apr-25 07:28N 48°19' W 004°45'0 0.0
2018-Apr-25 06:58N 48°19' W 004°45'0 0.0
2018-Apr-25 06:28N 48°19' W 004°45'0 0.0
2018-Apr-25 05:58N 48°19' W 004°45'0 0.0
2018-Apr-25 05:28N 48°19' W 004°45'0 0.0
2018-Apr-25 04:58N 48°19' W 004°45'0 0.0
2018-Apr-25 04:28N 48°19' W 004°45'0 0.0
2018-Apr-25 03:58N 48°19' W 004°45'0 0.0
2018-Apr-25 03:30N 48°19' W 004°45'0 0.0
2018-Apr-25 03:00N 48°19' W 004°45'0 0.0
2018-Apr-25 02:30N 48°19' W 004°45'0 0.0
2018-Apr-25 01:58N 48°19' W 004°45'0 0.0
2018-Apr-25 01:28N 48°19' W 004°45'0 0.0
2018-Apr-25 00:58N 48°19' W 004°45'0 0.0
2018-Apr-25 00:28N 48°19' W 004°45'0 0.1
2018-Apr-24 23:58N 48°19' W 004°45'0 0.0
2018-Apr-24 23:27N 48°19' W 004°45'0 0.0
2018-Apr-24 22:59N 48°19' W 004°45'0 0.0
2018-Apr-24 22:29N 48°19' W 004°45'0 0.0
2018-Apr-24 21:59N 48°19' W 004°45'0 0.0
2018-Apr-24 21:28N 48°19' W 004°45'0 0.0
2018-Apr-24 20:58N 48°19' W 004°45'0 0.0
2018-Apr-24 20:28N 48°19' W 004°45'0 0.0
2018-Apr-24 19:55N 48°19' W 004°45'0 0.1
2018-Apr-24 19:30N 48°19' W 004°45'1 1.7
2018-Apr-24 19:00N 48°18' W 004°46'510.2
2018-Apr-24 18:30N 48°16' W 004°53'713.6
2018-Apr-24 18:00N 48°17' W 005°03'91 7.8
2018-Apr-24 06:15N 49°36' W 003°56'312.0
2018-Apr-24 06:00N 49°38' W 003°52'711.8
2018-Apr-24 05:25N 49°42' W 003°43'611.7
2018-Apr-24 04:54N 49°45' W 003°35'611.4
2018-Apr-24 04:23N 49°48' W 003°27'411.1
2018-Apr-24 04:00N 49°50' W 003°21'610.8
2018-Apr-24 03:25N 49°53' W 003°13'610.4
2018-Apr-24 02:53N 49°56' W 003°05'410.2
2018-Apr-24 02:30N 49°58' W 003°00'7 9.7
2018-Apr-24 01:48N 50°01' W 002°51'3 9.7
2018-Apr-24 01:28N 50°02' W 002°46'5 9.7
2018-Apr-24 00:54N 50°03' W 002°38'2110.3
2018-Apr-23 22:50N 50°09' W 002°05'411.4
2018-Apr-23 22:30N 50°10' W 001°60'612.0
2018-Apr-23 22:00N 50°12' W 001°51'612.7
2018-Apr-23 21:31N 50°14' W 001°41'612.8
2018-Apr-23 21:00N 50°15' W 001°32'713.1
2018-Apr-23 20:30N 50°17' W 001°22'1613.5
2018-Apr-23 19:20N 50°21' W 000°58'613.9
2018-Apr-23 18:56N 50°23' W 000°50'814.4
2018-Apr-23 18:24N 50°25' W 000°38'614.0
2018-Apr-23 17:59N 50°27' W 000°29'613.7
2018-Apr-23 17:30N 50°29' W 000°19'713.3
2018-Apr-23 17:00N 50°31' W 000°09'612.8
2018-Apr-23 16:30N 50°32' E 000°00'612.5
2018-Apr-23 16:00N 50°34' E 000°10'612.2
2018-Apr-23 15:30N 50°36' E 000°19'611.9
2018-Apr-23 15:00N 50°37' E 000°28'612.1
2018-Apr-23 14:30N 50°40' E 000°37'612.5
2018-Apr-23 14:00N 50°43' E 000°45'612.8
2018-Apr-23 13:30N 50°47' E 000°53'813.5
2018-Apr-23 12:56N 50°52' E 001°03'1114.2
2018-Apr-23 12:10N 50°58' E 001°16'214.8
2018-Apr-23 12:00N 50°60' E 001°19'714.9
2018-Apr-23 11:31N 51°05' E 001°28'714.6
2018-Apr-23 11:01N 51°09' E 001°38'713.9
2018-Apr-23 10:30N 51°14' E 001°46'713.6
2018-Apr-23 10:00N 51°20' E 001°51'713.1
2018-Apr-23 09:31N 51°25' E 001°57'612.8
2018-Apr-23 09:00N 51°30' E 002°03'612.4
2018-Apr-23 08:29N 51°35' E 002°10'612.1
2018-Apr-23 08:00N 51°40' E 002°16'611.9
2018-Apr-23 07:28N 51°45' E 002°23'5612.9
2018-Apr-23 03:08N 52°26' E 003°24'514.0
2018-Apr-23 02:47N 52°28' E 003°31'513.4
2018-Apr-23 02:23N 52°29' E 003°40'913.7
2018-Apr-23 01:42N 52°31' E 003°55'313.5
2018-Apr-23 01:30N 52°31' E 003°59'713.2
2018-Apr-23 01:00N 52°31' E 004°10'612.7
2018-Apr-23 00:30N 52°30' E 004°20'510.9
2018-Apr-23 00:01N 52°28' E 004°29'4 8.9
2018-Apr-22 23:30N 52°28' E 004°36'0 0.4
2018-Apr-22 23:01N 52°28' E 004°36'1 1.1
2018-Apr-22 22:31N 52°28' E 004°37'1 1.7
2018-Apr-22 22:00N 52°28' E 004°39'1 2.8
2018-Apr-22 21:30N 52°27' E 004°41'2 3.2
2018-Apr-22 21:00N 52°26' E 004°43'2 4.7
2018-Apr-22 20:30N 52°25' E 004°46'1 2.0
2018-Apr-22 19:58N 52°24' E 004°46'0 0.0
2018-Apr-22 18:58N 52°24' E 004°46'0 0.0
2018-Apr-22 18:22N 52°24' E 004°46'0 0.0
2018-Apr-22 17:40N 52°24' E 004°46'0 0.0
2018-Apr-22 17:25N 52°24' E 004°46'0 0.0
2018-Apr-22 16:55N 52°24' E 004°46'0 0.0
2018-Apr-22 16:25N 52°24' E 004°46'0 0.0
2018-Apr-22 15:49N 52°24' E 004°46'0 0.0
2018-Apr-22 15:28N 52°24' E 004°46'0 0.0
2018-Apr-22 14:58N 52°24' E 004°46'0 0.0
2018-Apr-22 14:19N 52°24' E 004°46'0 0.0
2018-Apr-22 13:58N 52°24' E 004°46'0 0.0
2018-Apr-22 13:22N 52°24' E 004°46'0 0.0
2018-Apr-22 12:58N 52°24' E 004°46'0 0.0
2018-Apr-22 12:28N 52°24' E 004°46'0 0.0
2018-Apr-22 11:58N 52°24' E 004°46'0 0.0
2018-Apr-22 11:28N 52°24' E 004°46'0 0.0
2018-Apr-22 10:58N 52°24' E 004°46'0 0.0
2018-Apr-22 10:22N 52°24' E 004°46'0 0.0
2018-Apr-22 09:55N 52°24' E 004°46'0 0.0
2018-Apr-22 09:19N 52°24' E 004°46'0 0.0
2018-Apr-22 08:55N 52°24' E 004°46'0 0.0
2018-Apr-22 08:25N 52°24' E 004°46'0 0.0
2018-Apr-22 07:46N 52°24' E 004°46'0 0.0
2018-Apr-22 07:28N 52°24' E 004°46'0 0.0
2018-Apr-22 06:58N 52°24' E 004°46'0 0.0
2018-Apr-22 06:28N 52°24' E 004°46'0 0.0
2018-Apr-22 05:58N 52°24' E 004°46'0 0.0
2018-Apr-22 05:28N 52°24' E 004°46'0 0.0
2018-Apr-22 04:55N 52°24' E 004°46'0 0.0
2018-Apr-22 04:19N 52°24' E 004°46'0 0.0
2018-Apr-22 03:58N 52°24' E 004°46'0 0.0
2018-Apr-22 03:13N 52°24' E 004°46'0 0.0
2018-Apr-22 02:43N 52°24' E 004°46'0 0.0
2018-Apr-22 02:22N 52°24' E 004°46'0 0.0
2018-Apr-22 01:58N 52°24' E 004°46'0 0.0
2018-Apr-22 01:25N 52°24' E 004°46'0 0.0
2018-Apr-22 00:40N 52°24' E 004°46'0 0.0
2018-Apr-22 00:22N 52°24' E 004°46'0 0.0
2018-Apr-21 23:07N 52°24' E 004°46'0 0.0
2018-Apr-21 22:49N 52°24' E 004°46'0 0.0
2018-Apr-21 22:22N 52°24' E 004°46'0 0.0
2018-Apr-21 21:52N 52°24' E 004°46'0 0.0
2018-Apr-21 20:52N 52°24' E 004°46'0 0.0
2018-Apr-21 20:28N 52°24' E 004°46'0 0.0
2018-Apr-21 19:46N 52°24' E 004°46'0 0.0
2018-Apr-21 19:22N 52°24' E 004°46'0 0.0
2018-Apr-21 18:55N 52°24' E 004°46'0 0.0
2018-Apr-21 18:28N 52°24' E 004°46'0 0.0
2018-Apr-21 17:58N 52°24' E 004°46'0 0.0
2018-Apr-21 17:01N 52°24' E 004°46'0 0.0
2018-Apr-21 16:49N 52°24' E 004°46'0 0.0
2018-Apr-21 16:19N 52°24' E 004°46'0 0.0
2018-Apr-21 15:34N 52°24' E 004°46'0 0.0
2018-Apr-21 15:25N 52°24' E 004°46'0 0.0
2018-Apr-21 14:58N 52°24' E 004°46'0 0.0
2018-Apr-21 14:22N 52°24' E 004°46'0 0.0
2018-Apr-21 13:28N 52°24' E 004°46'0 0.0
2018-Apr-21 12:55N 52°24' E 004°46'0 0.0
2018-Apr-21 12:22N 52°24' E 004°46'0 0.0
2018-Apr-21 11:58N 52°24' E 004°46'0 0.0
2018-Apr-21 11:10N 52°24' E 004°46'0 0.0
2018-Apr-21 10:49N 52°24' E 004°46'0 0.0
2018-Apr-21 10:22N 52°24' E 004°46'0 0.0
2018-Apr-21 09:52N 52°24' E 004°46'0 0.0
2018-Apr-21 09:28N 52°24' E 004°46'0 0.0
2018-Apr-21 08:58N 52°24' E 004°46'0 0.0
2018-Apr-21 08:13N 52°24' E 004°46'0 0.0
2018-Apr-21 07:58N 52°24' E 004°46'0 0.0
2018-Apr-21 07:16N 52°24' E 004°46'0 0.0
2018-Apr-21 06:58N 52°24' E 004°46'0 0.0
2018-Apr-21 05:22N 52°24' E 004°46'0 0.0
2018-Apr-21 04:46N 52°24' E 004°46'0 0.0
2018-Apr-21 04:28N 52°24' E 004°46'0 0.0
2018-Apr-21 03:58N 52°24' E 004°46'0 0.0
2018-Apr-21 03:28N 52°24' E 004°46'0 0.0
2018-Apr-21 02:07N 52°24' E 004°46'0 0.0
2018-Apr-21 00:40N 52°24' E 004°46'0 0.0
2018-Apr-21 00:22N 52°24' E 004°46'0 0.0
2018-Apr-20 23:58N 52°24' E 004°46'0 0.0
2018-Apr-20 23:22N 52°24' E 004°46'0 0.0
2018-Apr-20 22:55N 52°24' E 004°46'0 0.0
2018-Apr-20 22:28N 52°24' E 004°46'0 0.0
2018-Apr-20 21:34N 52°24' E 004°46'0 0.0
2018-Apr-20 21:10N 52°24' E 004°46'0 0.0
2018-Apr-20 20:43N 52°24' E 004°46'0 0.0
2018-Apr-20 20:07N 52°24' E 004°46'0 0.0
2018-Apr-20 19:58N 52°24' E 004°46'0 0.0
2018-Apr-20 19:10N 52°24' E 004°46'0 0.0
2018-Apr-20 18:16N 52°24' E 004°46'0 0.0
2018-Apr-20 17:55N 52°24' E 004°46'0 0.0
2018-Apr-20 16:55N 52°24' E 004°46'0 0.0
2018-Apr-20 16:19N 52°24' E 004°46'0 0.0
2018-Apr-20 15:52N 52°24' E 004°46'0 0.0
2018-Apr-20 15:25N 52°24' E 004°46'0 0.0
2018-Apr-20 14:58N 52°24' E 004°46'0 0.0
2018-Apr-20 14:25N 52°24' E 004°46'0 0.0
2018-Apr-20 13:43N 52°24' E 004°46'0 0.0
2018-Apr-20 13:28N 52°24' E 004°46'0 0.0
2018-Apr-20 12:43N 52°24' E 004°46'0 0.0
2018-Apr-20 12:22N 52°24' E 004°46'0 0.0
2018-Apr-20 11:52N 52°24' E 004°46'0 0.0
2018-Apr-20 11:22N 52°24' E 004°46'0 0.0
2018-Apr-20 10:55N 52°24' E 004°46'0 0.0
2018-Apr-20 10:16N 52°24' E 004°46'0 0.0
2018-Apr-20 09:46N 52°24' E 004°46'0 0.0
2018-Apr-20 09:25N 52°24' E 004°46'0 0.0
2018-Apr-20 08:58N 52°24' E 004°46'0 0.0
2018-Apr-20 08:28N 52°24' E 004°46'0 0.0
2018-Apr-20 07:55N 52°24' E 004°46'0 0.0
2018-Apr-20 07:28N 52°24' E 004°46'0 0.0
2018-Apr-20 06:55N 52°24' E 004°46'0 0.0
2018-Apr-20 06:28N 52°24' E 004°46'0 0.0
2018-Apr-20 05:55N 52°24' E 004°46'0 0.0
2018-Apr-20 05:19N 52°24' E 004°46'0 0.0
2018-Apr-20 04:52N 52°24' E 004°46'0 0.0
2018-Apr-20 04:22N 52°24' E 004°46'0 0.0
2018-Apr-20 03:55N 52°24' E 004°46'0 0.0
2018-Apr-20 03:28N 52°24' E 004°46'0 0.0
2018-Apr-20 02:58N 52°24' E 004°46'0 0.0
2018-Apr-20 02:28N 52°24' E 004°46'0 0.0
2018-Apr-20 01:55N 52°24' E 004°46'0 0.0
2018-Apr-20 01:28N 52°24' E 004°46'0 0.0
2018-Apr-20 00:58N 52°24' E 004°46'0 0.0
2018-Apr-20 00:31N 52°24' E 004°46'1 2.5
2018-Apr-20 00:00N 52°25' E 004°46'4 7.4
2018-Apr-19 23:30N 52°27' E 004°41'3 5.6
2018-Apr-19 23:01N 52°28' E 004°37'0 0.5
2018-Apr-19 22:31N 52°28' E 004°36'2 3.6
2018-Apr-19 22:01N 52°28' E 004°33'611.5
2018-Apr-19 21:30N 52°29' E 004°24'4 9.0
2018-Apr-19 21:00N 52°29' E 004°17'5 9.7
2018-Apr-19 20:30N 52°29' E 004°09'5 9.7
2018-Apr-19 20:00N 52°27' E 004°01'1 1.1
2018-Apr-19 19:08N 52°27' E 003°60'0 0.0
2018-Apr-19 18:45N 52°27' E 003°60'0 0.0
2018-Apr-19 18:28N 52°27' E 003°60'0 0.0
2018-Apr-19 17:58N 52°27' E 003°60'0 0.0
2018-Apr-19 17:27N 52°27' E 003°60'0 0.0
2018-Apr-19 16:56N 52°27' E 003°60'0 0.1
2018-Apr-19 16:28N 52°27' E 003°60'0 0.0
2018-Apr-19 15:55N 52°27' E 003°60'0 0.0
2018-Apr-19 15:19N 52°27' E 003°60'0 0.1
2018-Apr-19 14:58N 52°27' E 003°60'0 0.0
2018-Apr-19 14:28N 52°27' E 003°60'0 0.0
2018-Apr-19 13:55N 52°27' E 003°60'0 0.0
2018-Apr-19 13:28N 52°27' E 003°60'0 0.0
2018-Apr-19 12:55N 52°27' E 003°60'0 0.0
2018-Apr-19 12:22N 52°27' E 003°60'0 0.0
2018-Apr-19 11:55N 52°27' E 003°60'0 0.0
2018-Apr-19 11:29N 52°27' E 003°60'0 0.0
2018-Apr-19 11:00N 52°27' E 003°60'0 0.0
2018-Apr-19 10:29N 52°27' E 003°60'0 0.0
2018-Apr-19 09:49N 52°27' E 003°60'0 0.1
2018-Apr-19 09:30N 52°27' E 003°60'0 0.0
2018-Apr-19 08:45N 52°27' E 003°60'0 0.0
2018-Apr-19 08:30N 52°27' E 003°60'0 0.0
2018-Apr-19 08:00N 52°27' E 003°60'0 0.0
2018-Apr-19 07:30N 52°27' E 003°60'0 0.0
2018-Apr-19 06:51N 52°27' E 003°60'0 0.0
2018-Apr-19 06:28N 52°27' E 003°60'0 0.0
2018-Apr-19 06:00N 52°27' E 003°60'0 0.0
2018-Apr-19 05:28N 52°27' E 003°60'0 0.0
2018-Apr-19 04:45N 52°27' E 003°60'0 0.0
2018-Apr-19 04:21N 52°27' E 003°60'0 0.0
2018-Apr-19 04:00N 52°27' E 003°60'0 0.0
2018-Apr-19 03:30N 52°27' E 003°60'0 0.1
2018-Apr-19 02:48N 52°27' E 003°60'0 0.0
2018-Apr-19 02:27N 52°27' E 003°60'0 0.0
2018-Apr-19 01:54N 52°27' E 003°60'0 0.0
2018-Apr-19 01:30N 52°27' E 003°60'0 0.0
2018-Apr-19 00:59N 52°27' E 003°60'0 0.0
2018-Apr-19 00:29N 52°27' E 003°60'0 0.0
2018-Apr-18 23:59N 52°27' E 003°60'0 0.0
2018-Apr-18 23:23N 52°27' E 003°60'0 0.0
2018-Apr-18 22:59N 52°27' E 003°60'0 0.0
2018-Apr-18 22:29N 52°27' E 003°60'0 0.0
2018-Apr-18 21:56N 52°27' E 003°60'0 0.0
2018-Apr-18 21:29N 52°27' E 003°60'0 0.0
2018-Apr-18 20:59N 52°27' E 003°60'0 0.0
2018-Apr-18 20:02N 52°27' E 003°60'0 0.0
2018-Apr-18 19:47N 52°27' E 003°60'0 0.1
2018-Apr-18 19:17N 52°27' E 003°60'0 0.1
2018-Apr-18 18:47N 52°27' E 003°60'0 0.0
2018-Apr-18 18:26N 52°27' E 003°60'0 0.0
2018-Apr-18 17:41N 52°27' E 003°60'0 0.0
2018-Apr-18 17:14N 52°27' E 003°60'0 0.0
2018-Apr-18 16:53N 52°27' E 003°60'0 0.0
2018-Apr-18 16:29N 52°27' E 003°60'0 0.0
2018-Apr-18 15:57N 52°27' E 003°60'0 0.0
2018-Apr-18 15:28N 52°27' E 003°60'0 0.2
2018-Apr-18 14:59N 52°27' E 003°60'510.0
2018-Apr-18 14:30N 52°26' E 003°52'713.0
2018-Apr-18 13:59N 52°25' E 003°41'611.7
2018-Apr-18 13:30N 52°20' E 003°36'1112.4
2018-Apr-18 12:35N 52°10' E 003°27'111.9
2018-Apr-18 12:29N 52°09' E 003°26'911.8
2018-Apr-18 11:43N 52°00' E 003°24'411.7
2018-Apr-18 11:25N 51°57' E 003°23'511.3
2018-Apr-18 11:00N 51°52' E 003°21'611.1
2018-Apr-18 10:29N 51°47' E 003°15'510.5
2018-Apr-18 10:00N 51°42' E 003°17'713.1
2018-Apr-18 09:29N 51°37' E 003°22'510.4
2018-Apr-18 09:00N 51°32' E 003°26'612.1
2018-Apr-18 08:30N 51°27' E 003°32'612.0
2018-Apr-18 08:00N 51°26' E 003°41'612.5
2018-Apr-18 07:31N 51°21' E 003°46'0 0.4
2018-Apr-18 07:01N 51°20' E 003°46'0 0.0
2018-Apr-18 06:22N 51°20' E 003°46'0 0.0
2018-Apr-18 05:48N 51°20' E 003°46'0 0.0
2018-Apr-18 05:24N 51°20' E 003°46'0 0.0
2018-Apr-18 04:51N 51°20' E 003°46'0 0.0
2018-Apr-18 04:25N 51°20' E 003°46'0 0.0
2018-Apr-18 03:52N 51°20' E 003°46'0 0.0
2018-Apr-18 03:22N 51°20' E 003°46'0 0.0
2018-Apr-18 03:01N 51°20' E 003°46'0 0.0
2018-Apr-18 02:18N 51°20' E 003°46'0 0.0
2018-Apr-18 00:51N 51°20' E 003°46'0 0.0
2018-Apr-17 23:24N 51°20' E 003°46'0 0.0
2018-Apr-17 22:57N 51°20' E 003°46'0 0.0
2018-Apr-17 21:58N 51°20' E 003°46'0 0.0
2018-Apr-17 21:28N 51°20' E 003°46'0 0.0
2018-Apr-17 20:39N 51°20' E 003°46'0 0.0
2018-Apr-17 20:09N 51°20' E 003°46'0 0.0
2018-Apr-17 19:58N 51°20' E 003°46'0 0.0
2018-Apr-17 18:45N 51°20' E 003°46'0 0.0
2018-Apr-17 18:15N 51°20' E 003°46'0 0.0
2018-Apr-17 17:58N 51°20' E 003°46'0 0.0
2018-Apr-17 17:24N 51°20' E 003°46'0 0.0
2018-Apr-17 16:58N 51°20' E 003°46'0 0.0
2018-Apr-17 16:31N 51°20' E 003°46'0 0.0
2018-Apr-17 16:00N 51°20' E 003°46'0 0.0
2018-Apr-17 15:28N 51°20' E 003°46'0 0.0
2018-Apr-17 14:57N 51°20' E 003°46'0 0.0
2018-Apr-17 14:12N 51°20' E 003°46'0 0.0
2018-Apr-17 13:57N 51°20' E 003°46'0 0.0
2018-Apr-17 13:28N 51°20' E 003°46'0 0.0
2018-Apr-17 12:18N 51°20' E 003°46'0 0.0
2018-Apr-17 11:51N 51°20' E 003°46'0 0.0
2018-Apr-17 09:16N 51°20' E 003°46'0 0.0
2018-Apr-17 08:43N 51°20' E 003°46'0 0.0
2018-Apr-17 08:27N 51°20' E 003°46'0 0.0
2018-Apr-17 07:57N 51°20' E 003°46'0 0.0
2018-Apr-17 07:28N 51°20' E 003°46'0 0.0
2018-Apr-17 06:49N 51°20' E 003°46'0 0.0
2018-Apr-17 06:28N 51°20' E 003°46'0 0.0
2018-Apr-17 05:58N 51°20' E 003°46'0 0.5
2018-Apr-17 05:30N 51°21' E 003°46'4 7.8
2018-Apr-17 05:00N 51°24' E 003°43'5 9.3
2018-Apr-17 04:30N 51°26' E 003°36'4 8.7
2018-Apr-17 04:00N 51°25' E 003°29'714.5
2018-Apr-17 03:30N 51°24' E 003°17'815.7
2018-Apr-17 03:00N 51°24' E 003°05'510.1
2018-Apr-17 02:30N 51°29' E 003°02'713.7
2018-Apr-17 02:00N 51°34' E 003°09'714.0
2018-Apr-17 01:29N 51°41' E 003°12'511.1
2018-Apr-17 01:00N 51°47' E 003°11'4 8.6
2018-Apr-17 00:29N 51°50' E 003°07'2612.0
2018-Apr-16 22:19N 52°16' E 003°01'713.2
2018-Apr-16 21:48N 52°22' E 003°03'22312.1
2018-Apr-16 03:22N 55°35' E 006°13'512.5
2018-Apr-16 03:00N 55°39' E 006°18'612.5
2018-Apr-16 02:30N 55°44' E 006°24'  

Dump ship's entire track history